sensor_id;sensor_type;location;lat;lon;timestamp;P1;durP1;ratioP1;P2;durP2;ratioP2
71174;SDS011;58876;51.994;4.472;2023-09-07T00:01:25;11.26;;;11.26;;
71174;SDS011;58876;51.994;4.472;2023-09-07T00:03:51;10.87;;;10.87;;
71174;SDS011;58876;51.994;4.472;2023-09-07T00:06:16;10.65;;;10.65;;
71174;SDS011;58876;51.994;4.472;2023-09-07T00:08:43;10.93;;;10.93;;
71174;SDS011;58876;51.994;4.472;2023-09-07T00:11:09;10.96;;;10.96;;
71174;SDS011;58876;51.994;4.472;2023-09-07T00:13:35;11.01;;;11.01;;
71174;SDS011;58876;51.994;4.472;2023-09-07T00:16:02;11.03;;;11.03;;
71174;SDS011;58876;51.994;4.472;2023-09-07T00:18:29;10.70;;;10.70;;
71174;SDS011;58876;51.994;4.472;2023-09-07T00:20:55;10.70;;;10.70;;
71174;SDS011;58876;51.994;4.472;2023-09-07T00:23:20;11.01;;;11.01;;
71174;SDS011;58876;51.994;4.472;2023-09-07T00:25:46;11.22;;;11.22;;
71174;SDS011;58876;51.994;4.472;2023-09-07T00:28:12;10.76;;;10.76;;
71174;SDS011;58876;51.994;4.472;2023-09-07T00:30:37;10.36;;;10.36;;
71174;SDS011;58876;51.994;4.472;2023-09-07T00:33:03;10.21;;;10.21;;
71174;SDS011;58876;51.994;4.472;2023-09-07T00:35:29;11.28;;;11.28;;
71174;SDS011;58876;51.994;4.472;2023-09-07T00:37:54;11.58;;;11.58;;
71174;SDS011;58876;51.994;4.472;2023-09-07T00:40:20;11.88;;;11.88;;
71174;SDS011;58876;51.994;4.472;2023-09-07T00:42:46;11.35;;;11.35;;
71174;SDS011;58876;51.994;4.472;2023-09-07T00:45:12;11.21;;;11.21;;
71174;SDS011;58876;51.994;4.472;2023-09-07T00:47:38;11.56;;;11.56;;
71174;SDS011;58876;51.994;4.472;2023-09-07T00:50:04;11.42;;;11.42;;
71174;SDS011;58876;51.994;4.472;2023-09-07T00:52:31;10.67;;;10.67;;
71174;SDS011;58876;51.994;4.472;2023-09-07T00:55:01;10.97;;;10.97;;
71174;SDS011;58876;51.994;4.472;2023-09-07T00:57:29;10.84;;;10.84;;
71174;SDS011;58876;51.994;4.472;2023-09-07T00:59:55;11.76;;;11.76;;
71174;SDS011;58876;51.994;4.472;2023-09-07T01:02:20;11.23;;;11.23;;
71174;SDS011;58876;51.994;4.472;2023-09-07T01:04:46;11.13;;;11.13;;
71174;SDS011;58876;51.994;4.472;2023-09-07T01:07:17;10.97;;;10.97;;
71174;SDS011;58876;51.994;4.472;2023-09-07T01:09:47;11.24;;;11.24;;
71174;SDS011;58876;51.994;4.472;2023-09-07T01:12:17;11.00;;;11.00;;
71174;SDS011;58876;51.994;4.472;2023-09-07T01:14:43;11.37;;;11.37;;
71174;SDS011;58876;51.994;4.472;2023-09-07T01:17:09;11.40;;;11.40;;
71174;SDS011;58876;51.994;4.472;2023-09-07T01:19:35;11.66;;;11.66;;
71174;SDS011;58876;51.994;4.472;2023-09-07T01:22:00;12.54;;;12.54;;
71174;SDS011;58876;51.994;4.472;2023-09-07T01:24:27;12.02;;;12.02;;
71174;SDS011;58876;51.994;4.472;2023-09-07T01:26:55;12.04;;;12.04;;
71174;SDS011;58876;51.994;4.472;2023-09-07T01:29:22;11.63;;;11.63;;
71174;SDS011;58876;51.994;4.472;2023-09-07T01:31:47;11.89;;;11.89;;
71174;SDS011;58876;51.994;4.472;2023-09-07T01:34:13;11.20;;;11.20;;
71174;SDS011;58876;51.994;4.472;2023-09-07T01:36:40;11.11;;;11.11;;
71174;SDS011;58876;51.994;4.472;2023-09-07T01:39:06;12.27;;;12.27;;
71174;SDS011;58876;51.994;4.472;2023-09-07T01:41:33;11.57;;;11.57;;
71174;SDS011;58876;51.994;4.472;2023-09-07T01:43:59;10.86;;;10.86;;
71174;SDS011;58876;51.994;4.472;2023-09-07T01:46:24;10.44;;;10.44;;
71174;SDS011;58876;51.994;4.472;2023-09-07T01:48:50;11.12;;;11.12;;
71174;SDS011;58876;51.994;4.472;2023-09-07T01:51:15;10.55;;;10.55;;
71174;SDS011;58876;51.994;4.472;2023-09-07T01:53:41;11.06;;;11.06;;
71174;SDS011;58876;51.994;4.472;2023-09-07T01:56:06;10.55;;;10.55;;
71174;SDS011;58876;51.994;4.472;2023-09-07T01:58:32;11.86;;;11.86;;
71174;SDS011;58876;51.994;4.472;2023-09-07T02:00:59;11.23;;;11.23;;
71174;SDS011;58876;51.994;4.472;2023-09-07T02:03:25;12.17;;;12.17;;
71174;SDS011;58876;51.994;4.472;2023-09-07T02:05:54;13.39;;;13.39;;
71174;SDS011;58876;51.994;4.472;2023-09-07T02:08:20;13.32;;;13.32;;
71174;SDS011;58876;51.994;4.472;2023-09-07T02:10:46;13.41;;;13.41;;
71174;SDS011;58876;51.994;4.472;2023-09-07T02:13:11;13.49;;;13.49;;
71174;SDS011;58876;51.994;4.472;2023-09-07T02:15:38;13.08;;;13.08;;
71174;SDS011;58876;51.994;4.472;2023-09-07T02:18:04;13.20;;;13.20;;
71174;SDS011;58876;51.994;4.472;2023-09-07T02:20:31;13.79;;;13.79;;
71174;SDS011;58876;51.994;4.472;2023-09-07T02:22:57;13.49;;;13.49;;
71174;SDS011;58876;51.994;4.472;2023-09-07T02:25:22;13.89;;;13.89;;
71174;SDS011;58876;51.994;4.472;2023-09-07T02:27:48;13.78;;;13.78;;
71174;SDS011;58876;51.994;4.472;2023-09-07T02:30:13;14.22;;;14.22;;
71174;SDS011;58876;51.994;4.472;2023-09-07T02:32:40;14.29;;;14.29;;
71174;SDS011;58876;51.994;4.472;2023-09-07T02:35:07;14.03;;;14.03;;
71174;SDS011;58876;51.994;4.472;2023-09-07T02:37:34;14.37;;;14.37;;
71174;SDS011;58876;51.994;4.472;2023-09-07T02:40:00;14.64;;;14.64;;
71174;SDS011;58876;51.994;4.472;2023-09-07T02:42:26;14.38;;;14.38;;
71174;SDS011;58876;51.994;4.472;2023-09-07T02:44:51;14.24;;;14.24;;
71174;SDS011;58876;51.994;4.472;2023-09-07T02:47:17;13.98;;;13.98;;
71174;SDS011;58876;51.994;4.472;2023-09-07T02:49:42;13.29;;;13.29;;
71174;SDS011;58876;51.994;4.472;2023-09-07T02:52:08;13.99;;;13.99;;
71174;SDS011;58876;51.994;4.472;2023-09-07T02:54:33;13.30;;;13.30;;
71174;SDS011;58876;51.994;4.472;2023-09-07T02:56:59;13.85;;;13.85;;
71174;SDS011;58876;51.994;4.472;2023-09-07T02:59:24;13.85;;;13.85;;
71174;SDS011;58876;51.994;4.472;2023-09-07T03:01:50;14.09;;;14.09;;
71174;SDS011;58876;51.994;4.472;2023-09-07T03:04:16;13.63;;;13.63;;
71174;SDS011;58876;51.994;4.472;2023-09-07T03:06:41;14.09;;;14.09;;
71174;SDS011;58876;51.994;4.472;2023-09-07T03:09:07;14.19;;;14.19;;
71174;SDS011;58876;51.994;4.472;2023-09-07T03:11:34;13.86;;;13.86;;
71174;SDS011;58876;51.994;4.472;2023-09-07T03:14:00;12.99;;;12.99;;
71174;SDS011;58876;51.994;4.472;2023-09-07T03:16:26;13.49;;;13.49;;
71174;SDS011;58876;51.994;4.472;2023-09-07T03:18:51;14.17;;;14.17;;
71174;SDS011;58876;51.994;4.472;2023-09-07T03:21:17;12.80;;;12.80;;
71174;SDS011;58876;51.994;4.472;2023-09-07T03:23:42;13.44;;;13.44;;
71174;SDS011;58876;51.994;4.472;2023-09-07T03:26:10;14.38;;;14.38;;
71174;SDS011;58876;51.994;4.472;2023-09-07T03:28:35;14.03;;;14.03;;
71174;SDS011;58876;51.994;4.472;2023-09-07T03:31:01;13.70;;;13.70;;
71174;SDS011;58876;51.994;4.472;2023-09-07T03:33:27;15.62;;;15.62;;
71174;SDS011;58876;51.994;4.472;2023-09-07T03:35:52;16.04;;;16.04;;
71174;SDS011;58876;51.994;4.472;2023-09-07T03:38:18;15.40;;;15.40;;
71174;SDS011;58876;51.994;4.472;2023-09-07T03:40:44;16.27;;;16.27;;
71174;SDS011;58876;51.994;4.472;2023-09-07T03:43:09;16.22;;;16.22;;
71174;SDS011;58876;51.994;4.472;2023-09-07T03:45:35;16.28;;;16.28;;
71174;SDS011;58876;51.994;4.472;2023-09-07T03:48:00;16.56;;;16.56;;
71174;SDS011;58876;51.994;4.472;2023-09-07T03:50:26;16.34;;;16.34;;
71174;SDS011;58876;51.994;4.472;2023-09-07T03:52:53;15.92;;;15.92;;
71174;SDS011;58876;51.994;4.472;2023-09-07T03:55:18;17.09;;;17.09;;
71174;SDS011;58876;51.994;4.472;2023-09-07T03:57:44;16.91;;;16.91;;
71174;SDS011;58876;51.994;4.472;2023-09-07T04:00:09;16.39;;;16.39;;
71174;SDS011;58876;51.994;4.472;2023-09-07T04:02:35;15.57;;;15.57;;
71174;SDS011;58876;51.994;4.472;2023-09-07T04:05:00;15.88;;;15.88;;
71174;SDS011;58876;51.994;4.472;2023-09-07T04:07:30;16.01;;;16.01;;
71174;SDS011;58876;51.994;4.472;2023-09-07T04:09:56;17.26;;;17.26;;
71174;SDS011;58876;51.994;4.472;2023-09-07T04:12:21;18.65;;;18.65;;
71174;SDS011;58876;51.994;4.472;2023-09-07T04:14:47;18.44;;;18.44;;
71174;SDS011;58876;51.994;4.472;2023-09-07T04:17:12;18.16;;;18.16;;
71174;SDS011;58876;51.994;4.472;2023-09-07T04:19:38;17.43;;;17.43;;
71174;SDS011;58876;51.994;4.472;2023-09-07T04:22:04;18.63;;;18.63;;
71174;SDS011;58876;51.994;4.472;2023-09-07T04:24:29;18.69;;;18.69;;
71174;SDS011;58876;51.994;4.472;2023-09-07T04:26:58;18.10;;;18.10;;
71174;SDS011;58876;51.994;4.472;2023-09-07T04:29:26;18.65;;;18.65;;
71174;SDS011;58876;51.994;4.472;2023-09-07T04:31:52;19.14;;;19.14;;
71174;SDS011;58876;51.994;4.472;2023-09-07T04:34:17;18.64;;;18.64;;
71174;SDS011;58876;51.994;4.472;2023-09-07T04:36:43;19.51;;;19.51;;
71174;SDS011;58876;51.994;4.472;2023-09-07T04:39:08;20.29;;;20.29;;
71174;SDS011;58876;51.994;4.472;2023-09-07T04:41:34;19.99;;;19.99;;
71174;SDS011;58876;51.994;4.472;2023-09-07T04:43:59;19.55;;;19.55;;
71174;SDS011;58876;51.994;4.472;2023-09-07T04:46:25;18.82;;;18.82;;
71174;SDS011;58876;51.994;4.472;2023-09-07T04:48:50;18.61;;;18.61;;
71174;SDS011;58876;51.994;4.472;2023-09-07T04:51:16;18.97;;;18.97;;
71174;SDS011;58876;51.994;4.472;2023-09-07T04:53:41;18.77;;;18.77;;
71174;SDS011;58876;51.994;4.472;2023-09-07T04:56:07;19.06;;;19.06;;
71174;SDS011;58876;51.994;4.472;2023-09-07T04:58:34;19.79;;;19.79;;
71174;SDS011;58876;51.994;4.472;2023-09-07T05:01:03;17.88;;;17.88;;
71174;SDS011;58876;51.994;4.472;2023-09-07T05:03:29;18.06;;;18.06;;
71174;SDS011;58876;51.994;4.472;2023-09-07T05:05:55;17.35;;;17.35;;
71174;SDS011;58876;51.994;4.472;2023-09-07T05:08:21;17.31;;;17.31;;
71174;SDS011;58876;51.994;4.472;2023-09-07T05:10:48;17.35;;;17.35;;
71174;SDS011;58876;51.994;4.472;2023-09-07T05:13:13;18.91;;;18.91;;
71174;SDS011;58876;51.994;4.472;2023-09-07T05:15:49;18.66;;;18.66;;
71174;SDS011;58876;51.994;4.472;2023-09-07T05:18:15;19.06;;;19.06;;
71174;SDS011;58876;51.994;4.472;2023-09-07T05:20:41;19.73;;;19.73;;
71174;SDS011;58876;51.994;4.472;2023-09-07T05:23:07;19.96;;;19.96;;
71174;SDS011;58876;51.994;4.472;2023-09-07T05:25:33;19.47;;;19.47;;
71174;SDS011;58876;51.994;4.472;2023-09-07T05:27:58;19.34;;;19.34;;
71174;SDS011;58876;51.994;4.472;2023-09-07T05:30:24;19.73;;;19.73;;
71174;SDS011;58876;51.994;4.472;2023-09-07T05:32:49;20.13;;;20.13;;
71174;SDS011;58876;51.994;4.472;2023-09-07T05:35:15;19.65;;;19.65;;
71174;SDS011;58876;51.994;4.472;2023-09-07T05:37:42;21.58;;;21.58;;
71174;SDS011;58876;51.994;4.472;2023-09-07T05:40:07;19.74;;;19.74;;
71174;SDS011;58876;51.994;4.472;2023-09-07T05:42:33;19.99;;;19.99;;
71174;SDS011;58876;51.994;4.472;2023-09-07T05:44:59;20.56;;;20.56;;
71174;SDS011;58876;51.994;4.472;2023-09-07T05:47:25;20.03;;;20.03;;
71174;SDS011;58876;51.994;4.472;2023-09-07T05:49:51;20.05;;;20.05;;
71174;SDS011;58876;51.994;4.472;2023-09-07T05:52:17;19.39;;;19.39;;
71174;SDS011;58876;51.994;4.472;2023-09-07T05:54:43;19.75;;;19.75;;
71174;SDS011;58876;51.994;4.472;2023-09-07T05:57:08;20.22;;;20.22;;
71174;SDS011;58876;51.994;4.472;2023-09-07T05:59:33;21.00;;;21.00;;
71174;SDS011;58876;51.994;4.472;2023-09-07T06:01:59;21.16;;;21.16;;
71174;SDS011;58876;51.994;4.472;2023-09-07T06:04:25;20.61;;;20.61;;
71174;SDS011;58876;51.994;4.472;2023-09-07T06:06:51;21.00;;;21.00;;
71174;SDS011;58876;51.994;4.472;2023-09-07T06:09:17;21.59;;;21.59;;
71174;SDS011;58876;51.994;4.472;2023-09-07T06:11:42;21.57;;;21.57;;
71174;SDS011;58876;51.994;4.472;2023-09-07T06:14:07;20.35;;;20.35;;
71174;SDS011;58876;51.994;4.472;2023-09-07T06:16:33;20.69;;;20.69;;
71174;SDS011;58876;51.994;4.472;2023-09-07T06:19:00;25.91;;;25.86;;
71174;SDS011;58876;51.994;4.472;2023-09-07T06:21:25;20.77;;;20.77;;
71174;SDS011;58876;51.994;4.472;2023-09-07T06:23:51;21.07;;;21.07;;
71174;SDS011;58876;51.994;4.472;2023-09-07T06:26:16;21.19;;;21.19;;
71174;SDS011;58876;51.994;4.472;2023-09-07T06:28:43;21.77;;;21.77;;
71174;SDS011;58876;51.994;4.472;2023-09-07T06:31:08;22.26;;;22.26;;
71174;SDS011;58876;51.994;4.472;2023-09-07T06:33:34;20.52;;;20.52;;
71174;SDS011;58876;51.994;4.472;2023-09-07T06:35:59;20.54;;;20.54;;
71174;SDS011;58876;51.994;4.472;2023-09-07T06:38:27;20.40;;;20.40;;
71174;SDS011;58876;51.994;4.472;2023-09-07T06:40:53;21.18;;;21.18;;
71174;SDS011;58876;51.994;4.472;2023-09-07T06:43:18;20.85;;;20.85;;
71174;SDS011;58876;51.994;4.472;2023-09-07T06:45:44;21.75;;;21.75;;
71174;SDS011;58876;51.994;4.472;2023-09-07T06:48:09;20.95;;;20.95;;
71174;SDS011;58876;51.994;4.472;2023-09-07T06:50:35;19.55;;;19.55;;
71174;SDS011;58876;51.994;4.472;2023-09-07T06:53:00;19.31;;;19.31;;
71174;SDS011;58876;51.994;4.472;2023-09-07T06:55:26;20.14;;;20.14;;
71174;SDS011;58876;51.994;4.472;2023-09-07T06:57:53;19.31;;;19.31;;
71174;SDS011;58876;51.994;4.472;2023-09-07T07:00:19;19.84;;;19.84;;
71174;SDS011;58876;51.994;4.472;2023-09-07T07:02:44;19.59;;;19.59;;
71174;SDS011;58876;51.994;4.472;2023-09-07T07:05:10;19.45;;;19.45;;
71174;SDS011;58876;51.994;4.472;2023-09-07T07:07:35;19.06;;;19.06;;
71174;SDS011;58876;51.994;4.472;2023-09-07T07:10:00;18.79;;;18.79;;
71174;SDS011;58876;51.994;4.472;2023-09-07T07:12:26;19.39;;;19.39;;
71174;SDS011;58876;51.994;4.472;2023-09-07T07:14:51;18.95;;;18.95;;
71174;SDS011;58876;51.994;4.472;2023-09-07T07:17:17;18.94;;;18.94;;
71174;SDS011;58876;51.994;4.472;2023-09-07T07:19:42;18.39;;;18.39;;
71174;SDS011;58876;51.994;4.472;2023-09-07T07:22:08;17.74;;;17.74;;
71174;SDS011;58876;51.994;4.472;2023-09-07T07:24:34;20.80;;;20.80;;
71174;SDS011;58876;51.994;4.472;2023-09-07T07:26:59;16.84;;;16.84;;
71174;SDS011;58876;51.994;4.472;2023-09-07T07:29:25;16.06;;;16.06;;
71174;SDS011;58876;51.994;4.472;2023-09-07T07:31:50;16.14;;;16.14;;
71174;SDS011;58876;51.994;4.472;2023-09-07T07:34:15;16.18;;;16.18;;
71174;SDS011;58876;51.994;4.472;2023-09-07T07:36:41;16.22;;;16.22;;
71174;SDS011;58876;51.994;4.472;2023-09-07T07:39:06;15.69;;;15.69;;
71174;SDS011;58876;51.994;4.472;2023-09-07T07:41:32;14.86;;;14.86;;
71174;SDS011;58876;51.994;4.472;2023-09-07T07:43:58;15.14;;;15.14;;
71174;SDS011;58876;51.994;4.472;2023-09-07T07:46:24;14.69;;;14.69;;
71174;SDS011;58876;51.994;4.472;2023-09-07T07:48:49;14.01;;;14.01;;
71174;SDS011;58876;51.994;4.472;2023-09-07T07:51:15;14.06;;;14.06;;
71174;SDS011;58876;51.994;4.472;2023-09-07T07:53:40;14.01;;;14.01;;
71174;SDS011;58876;51.994;4.472;2023-09-07T07:56:13;13.88;;;13.88;;
71174;SDS011;58876;51.994;4.472;2023-09-07T07:58:40;13.75;;;13.75;;
71174;SDS011;58876;51.994;4.472;2023-09-07T08:01:12;13.14;;;13.14;;
71174;SDS011;58876;51.994;4.472;2023-09-07T08:03:41;12.61;;;12.61;;
71174;SDS011;58876;51.994;4.472;2023-09-07T08:06:07;13.36;;;13.36;;
71174;SDS011;58876;51.994;4.472;2023-09-07T08:08:32;13.16;;;13.16;;
71174;SDS011;58876;51.994;4.472;2023-09-07T08:10:58;12.51;;;12.51;;
71174;SDS011;58876;51.994;4.472;2023-09-07T08:13:25;12.74;;;12.74;;
71174;SDS011;58876;51.994;4.472;2023-09-07T08:15:50;14.63;;;14.63;;
71174;SDS011;58876;51.994;4.472;2023-09-07T08:18:16;12.24;;;12.24;;
71174;SDS011;58876;51.994;4.472;2023-09-07T08:20:41;11.27;;;11.27;;
71174;SDS011;58876;51.994;4.472;2023-09-07T08:23:07;11.63;;;11.63;;
71174;SDS011;58876;51.994;4.472;2023-09-07T08:25:35;11.34;;;11.34;;
71174;SDS011;58876;51.994;4.472;2023-09-07T08:28:01;11.26;;;11.26;;
71174;SDS011;58876;51.994;4.472;2023-09-07T08:30:30;10.68;;;10.68;;
71174;SDS011;58876;51.994;4.472;2023-09-07T08:32:55;10.23;;;10.23;;
71174;SDS011;58876;51.994;4.472;2023-09-07T08:35:21;9.90;;;9.90;;
71174;SDS011;58876;51.994;4.472;2023-09-07T08:37:52;10.13;;;10.13;;
71174;SDS011;58876;51.994;4.472;2023-09-07T08:40:22;10.52;;;10.52;;
71174;SDS011;58876;51.994;4.472;2023-09-07T08:42:48;10.55;;;10.55;;
71174;SDS011;58876;51.994;4.472;2023-09-07T08:45:14;9.73;;;9.73;;
71174;SDS011;58876;51.994;4.472;2023-09-07T08:47:47;10.06;;;10.06;;
71174;SDS011;58876;51.994;4.472;2023-09-07T08:50:15;10.43;;;10.43;;
71174;SDS011;58876;51.994;4.472;2023-09-07T08:52:43;10.18;;;10.18;;
71174;SDS011;58876;51.994;4.472;2023-09-07T08:55:10;10.14;;;10.14;;
71174;SDS011;58876;51.994;4.472;2023-09-07T08:57:37;10.06;;;10.06;;
71174;SDS011;58876;51.994;4.472;2023-09-07T09:00:03;11.08;;;11.08;;
71174;SDS011;58876;51.994;4.472;2023-09-07T09:02:33;11.16;;;11.16;;
71174;SDS011;58876;51.994;4.472;2023-09-07T09:04:59;10.88;;;10.88;;
71174;SDS011;58876;51.994;4.472;2023-09-07T09:07:25;10.44;;;10.44;;
71174;SDS011;58876;51.994;4.472;2023-09-07T09:09:51;10.53;;;10.53;;
71174;SDS011;58876;51.994;4.472;2023-09-07T09:12:26;9.91;;;9.91;;
71174;SDS011;58876;51.994;4.472;2023-09-07T09:14:52;10.39;;;10.39;;
71174;SDS011;58876;51.994;4.472;2023-09-07T09:17:17;11.03;;;11.03;;
71174;SDS011;58876;51.994;4.472;2023-09-07T09:19:43;11.18;;;11.18;;
71174;SDS011;58876;51.994;4.472;2023-09-07T09:22:08;10.53;;;10.53;;
71174;SDS011;58876;51.994;4.472;2023-09-07T09:24:34;10.08;;;10.08;;
71174;SDS011;58876;51.994;4.472;2023-09-07T09:27:00;10.15;;;10.15;;
71174;SDS011;58876;51.994;4.472;2023-09-07T09:29:26;10.43;;;10.43;;
71174;SDS011;58876;51.994;4.472;2023-09-07T09:31:52;10.52;;;10.52;;
71174;SDS011;58876;51.994;4.472;2023-09-07T09:34:18;10.42;;;10.42;;
71174;SDS011;58876;51.994;4.472;2023-09-07T09:36:45;10.14;;;10.14;;
71174;SDS011;58876;51.994;4.472;2023-09-07T09:39:21;10.16;;;10.16;;
71174;SDS011;58876;51.994;4.472;2023-09-07T09:41:49;10.15;;;10.15;;
71174;SDS011;58876;51.994;4.472;2023-09-07T09:44:16;9.90;;;9.90;;
71174;SDS011;58876;51.994;4.472;2023-09-07T09:46:41;9.91;;;9.91;;
71174;SDS011;58876;51.994;4.472;2023-09-07T09:49:08;9.90;;;9.90;;
71174;SDS011;58876;51.994;4.472;2023-09-07T09:51:36;9.92;;;9.92;;
71174;SDS011;58876;51.994;4.472;2023-09-07T09:54:04;10.04;;;10.04;;
71174;SDS011;58876;51.994;4.472;2023-09-07T09:56:31;9.58;;;9.58;;
71174;SDS011;58876;51.994;4.472;2023-09-07T09:58:56;8.83;;;8.83;;
71174;SDS011;58876;51.994;4.472;2023-09-07T10:01:22;9.22;;;9.22;;
71174;SDS011;58876;51.994;4.472;2023-09-07T10:03:48;9.24;;;9.24;;
71174;SDS011;58876;51.994;4.472;2023-09-07T10:06:28;9.07;;;9.07;;
71174;SDS011;58876;51.994;4.472;2023-09-07T10:11:34;8.46;;;8.46;;
71174;SDS011;58876;51.994;4.472;2023-09-07T10:14:03;9.34;;;9.34;;
71174;SDS011;58876;51.994;4.472;2023-09-07T10:16:46;9.11;;;9.11;;
71174;SDS011;58876;51.994;4.472;2023-09-07T10:19:24;8.55;;;8.55;;
71174;SDS011;58876;51.994;4.472;2023-09-07T10:21:52;8.17;;;8.17;;
71174;SDS011;58876;51.994;4.472;2023-09-07T10:24:32;7.98;;;7.98;;
71174;SDS011;58876;51.994;4.472;2023-09-07T10:27:05;7.80;;;7.80;;
71174;SDS011;58876;51.994;4.472;2023-09-07T10:29:41;7.82;;;7.82;;
71174;SDS011;58876;51.994;4.472;2023-09-07T10:32:11;7.00;;;7.00;;
71174;SDS011;58876;51.994;4.472;2023-09-07T10:34:40;6.87;;;6.87;;
71174;SDS011;58876;51.994;4.472;2023-09-07T10:37:12;7.03;;;7.03;;
71174;SDS011;58876;51.994;4.472;2023-09-07T10:39:40;7.16;;;7.16;;
71174;SDS011;58876;51.994;4.472;2023-09-07T10:44:48;6.62;;;6.62;;
71174;SDS011;58876;51.994;4.472;2023-09-07T10:47:14;7.29;;;7.29;;
71174;SDS011;58876;51.994;4.472;2023-09-07T10:49:40;7.13;;;7.13;;
71174;SDS011;58876;51.994;4.472;2023-09-07T10:52:05;7.04;;;7.04;;
71174;SDS011;58876;51.994;4.472;2023-09-07T10:54:31;7.17;;;7.17;;
71174;SDS011;58876;51.994;4.472;2023-09-07T10:56:57;7.34;;;7.34;;
71174;SDS011;58876;51.994;4.472;2023-09-07T10:59:33;6.85;;;6.85;;
71174;SDS011;58876;51.994;4.472;2023-09-07T11:02:05;6.60;;;6.60;;
71174;SDS011;58876;51.994;4.472;2023-09-07T11:04:31;6.46;;;6.46;;
71174;SDS011;58876;51.994;4.472;2023-09-07T11:06:56;6.65;;;6.65;;
71174;SDS011;58876;51.994;4.472;2023-09-07T11:09:23;6.45;;;6.45;;
71174;SDS011;58876;51.994;4.472;2023-09-07T11:11:48;5.99;;;5.99;;
71174;SDS011;58876;51.994;4.472;2023-09-07T11:14:14;6.02;;;6.02;;
71174;SDS011;58876;51.994;4.472;2023-09-07T11:16:40;6.06;;;6.06;;
71174;SDS011;58876;51.994;4.472;2023-09-07T11:19:06;6.05;;;6.05;;
71174;SDS011;58876;51.994;4.472;2023-09-07T11:21:36;6.17;;;6.17;;
71174;SDS011;58876;51.994;4.472;2023-09-07T11:24:02;6.24;;;6.24;;
71174;SDS011;58876;51.994;4.472;2023-09-07T11:26:46;6.27;;;6.27;;
71174;SDS011;58876;51.994;4.472;2023-09-07T11:29:16;5.86;;;5.86;;
71174;SDS011;58876;51.994;4.472;2023-09-07T11:31:45;5.76;;;5.76;;
71174;SDS011;58876;51.994;4.472;2023-09-07T11:34:11;5.91;;;5.91;;
71174;SDS011;58876;51.994;4.472;2023-09-07T11:36:38;5.69;;;5.69;;
71174;SDS011;58876;51.994;4.472;2023-09-07T11:39:04;5.58;;;5.58;;
71174;SDS011;58876;51.994;4.472;2023-09-07T11:41:38;5.37;;;5.37;;
71174;SDS011;58876;51.994;4.472;2023-09-07T11:44:07;5.68;;;5.68;;
71174;SDS011;58876;51.994;4.472;2023-09-07T11:46:33;5.39;;;5.39;;
71174;SDS011;58876;51.994;4.472;2023-09-07T11:48:59;5.59;;;5.59;;
71174;SDS011;58876;51.994;4.472;2023-09-07T11:51:25;5.67;;;5.67;;
71174;SDS011;58876;51.994;4.472;2023-09-07T11:53:50;5.83;;;5.83;;
71174;SDS011;58876;51.994;4.472;2023-09-07T11:56:16;5.05;;;5.05;;
71174;SDS011;58876;51.994;4.472;2023-09-07T11:58:41;5.63;;;5.63;;
71174;SDS011;58876;51.994;4.472;2023-09-07T12:01:09;5.43;;;5.43;;
71174;SDS011;58876;51.994;4.472;2023-09-07T12:03:34;5.46;;;5.46;;
71174;SDS011;58876;51.994;4.472;2023-09-07T12:06:00;5.45;;;5.45;;
71174;SDS011;58876;51.994;4.472;2023-09-07T12:08:25;5.50;;;5.50;;
71174;SDS011;58876;51.994;4.472;2023-09-07T12:10:51;5.68;;;5.68;;
71174;SDS011;58876;51.994;4.472;2023-09-07T12:13:16;5.27;;;5.27;;
71174;SDS011;58876;51.994;4.472;2023-09-07T12:15:42;4.96;;;4.96;;
71174;SDS011;58876;51.994;4.472;2023-09-07T12:18:07;5.48;;;5.48;;
71174;SDS011;58876;51.994;4.472;2023-09-07T12:20:33;5.16;;;5.16;;
71174;SDS011;58876;51.994;4.472;2023-09-07T12:23:01;5.07;;;5.07;;
71174;SDS011;58876;51.994;4.472;2023-09-07T12:25:29;4.82;;;4.82;;
71174;SDS011;58876;51.994;4.472;2023-09-07T12:27:55;4.76;;;4.76;;
71174;SDS011;58876;51.994;4.472;2023-09-07T12:30:21;4.93;;;4.93;;
71174;SDS011;58876;51.994;4.472;2023-09-07T12:32:48;5.14;;;5.14;;
71174;SDS011;58876;51.994;4.472;2023-09-07T12:35:15;4.82;;;4.82;;
71174;SDS011;58876;51.994;4.472;2023-09-07T12:37:41;4.87;;;4.87;;
71174;SDS011;58876;51.994;4.472;2023-09-07T12:40:07;4.93;;;4.93;;
71174;SDS011;58876;51.994;4.472;2023-09-07T12:42:37;5.10;;;5.10;;
71174;SDS011;58876;51.994;4.472;2023-09-07T12:45:05;4.89;;;4.89;;
71174;SDS011;58876;51.994;4.472;2023-09-07T12:47:31;4.85;;;4.85;;
71174;SDS011;58876;51.994;4.472;2023-09-07T12:49:57;5.24;;;5.24;;
71174;SDS011;58876;51.994;4.472;2023-09-07T12:52:22;4.98;;;4.98;;
71174;SDS011;58876;51.994;4.472;2023-09-07T12:54:48;4.75;;;4.75;;
71174;SDS011;58876;51.994;4.472;2023-09-07T12:57:13;5.02;;;5.02;;
71174;SDS011;58876;51.994;4.472;2023-09-07T12:59:39;4.84;;;4.84;;
71174;SDS011;58876;51.994;4.472;2023-09-07T13:02:07;4.57;;;4.57;;
71174;SDS011;58876;51.994;4.472;2023-09-07T13:04:33;5.02;;;5.02;;
71174;SDS011;58876;51.994;4.472;2023-09-07T13:06:58;5.12;;;5.12;;
71174;SDS011;58876;51.994;4.472;2023-09-07T13:09:26;4.91;;;4.91;;
71174;SDS011;58876;51.994;4.472;2023-09-07T13:11:51;4.66;;;4.66;;
71174;SDS011;58876;51.994;4.472;2023-09-07T13:14:17;4.72;;;4.72;;
71174;SDS011;58876;51.994;4.472;2023-09-07T13:16:42;4.77;;;4.77;;
71174;SDS011;58876;51.994;4.472;2023-09-07T13:19:08;4.53;;;4.53;;
71174;SDS011;58876;51.994;4.472;2023-09-07T13:21:33;5.08;;;5.08;;
71174;SDS011;58876;51.994;4.472;2023-09-07T13:23:59;5.13;;;5.13;;
71174;SDS011;58876;51.994;4.472;2023-09-07T13:26:24;5.20;;;5.20;;
71174;SDS011;58876;51.994;4.472;2023-09-07T13:28:50;5.09;;;5.09;;
71174;SDS011;58876;51.994;4.472;2023-09-07T13:31:15;5.05;;;5.05;;
71174;SDS011;58876;51.994;4.472;2023-09-07T13:33:41;5.26;;;5.26;;
71174;SDS011;58876;51.994;4.472;2023-09-07T13:36:07;4.94;;;4.94;;
71174;SDS011;58876;51.994;4.472;2023-09-07T13:38:34;5.12;;;5.12;;
71174;SDS011;58876;51.994;4.472;2023-09-07T13:41:00;5.21;;;5.21;;
71174;SDS011;58876;51.994;4.472;2023-09-07T13:43:25;5.22;;;5.22;;
71174;SDS011;58876;51.994;4.472;2023-09-07T13:45:51;5.13;;;5.13;;
71174;SDS011;58876;51.994;4.472;2023-09-07T13:48:17;4.87;;;4.87;;
71174;SDS011;58876;51.994;4.472;2023-09-07T13:50:42;4.78;;;4.78;;
71174;SDS011;58876;51.994;4.472;2023-09-07T13:53:08;4.92;;;4.92;;
71174;SDS011;58876;51.994;4.472;2023-09-07T13:55:33;4.96;;;4.96;;
71174;SDS011;58876;51.994;4.472;2023-09-07T13:58:00;4.68;;;4.68;;
71174;SDS011;58876;51.994;4.472;2023-09-07T14:00:26;5.10;;;5.10;;
71174;SDS011;58876;51.994;4.472;2023-09-07T14:02:51;5.08;;;5.08;;
71174;SDS011;58876;51.994;4.472;2023-09-07T14:05:18;5.03;;;5.03;;
71174;SDS011;58876;51.994;4.472;2023-09-07T14:07:43;4.95;;;4.95;;
71174;SDS011;58876;51.994;4.472;2023-09-07T14:10:09;5.02;;;5.02;;
71174;SDS011;58876;51.994;4.472;2023-09-07T14:12:35;5.01;;;5.01;;
71174;SDS011;58876;51.994;4.472;2023-09-07T14:15:00;5.05;;;5.05;;
71174;SDS011;58876;51.994;4.472;2023-09-07T14:17:26;4.83;;;4.83;;
71174;SDS011;58876;51.994;4.472;2023-09-07T14:19:51;4.62;;;4.62;;
71174;SDS011;58876;51.994;4.472;2023-09-07T14:22:16;4.34;;;4.34;;
71174;SDS011;58876;51.994;4.472;2023-09-07T14:24:42;4.64;;;4.64;;
71174;SDS011;58876;51.994;4.472;2023-09-07T14:27:07;5.15;;;5.15;;
71174;SDS011;58876;51.994;4.472;2023-09-07T14:29:34;5.01;;;5.01;;
71174;SDS011;58876;51.994;4.472;2023-09-07T14:32:00;5.27;;;5.27;;